createdAt,value
2019-04-04T00:00:59.702Z,19.3
2019-04-04T00:01:59.376Z,19.28
2019-04-04T00:02:59.415Z,19.28
2019-04-04T00:03:59.419Z,19.3
2019-04-04T00:04:59.443Z,19.32
2019-04-04T00:05:59.584Z,19.31
2019-04-04T00:06:59.514Z,19.31
2019-04-04T00:08:00.764Z,19.28
2019-04-04T00:09:02.797Z,19.29
2019-04-04T00:09:59.615Z,19.29
2019-04-04T00:10:59.622Z,19.29
2019-04-04T00:11:59.646Z,19.32
2019-04-04T00:12:59.647Z,19.29
2019-04-04T00:13:59.559Z,19.3
2019-04-04T00:14:59.692Z,19.29
2019-04-04T00:15:59.365Z,19.29
2019-04-04T00:16:59.401Z,19.29
2019-04-04T00:17:59.349Z,19.29
2019-04-04T00:18:59.367Z,19.28
2019-04-04T00:20:01.731Z,19.28
2019-04-04T00:21:03.361Z,19.27
2019-04-04T00:21:59.432Z,19.27
2019-04-04T00:22:59.416Z,19.26
2019-04-04T00:23:59.463Z,19.27
2019-04-04T00:24:59.470Z,19.28
2019-04-04T00:25:59.452Z,19.26
2019-04-04T00:26:59.478Z,19.26
2019-04-04T00:27:59.591Z,19.29
2019-04-04T00:29:01.823Z,19.27
2019-04-04T00:29:59.500Z,19.28
2019-04-04T00:30:59.566Z,19.27
2019-04-04T00:31:59.546Z,19.27
2019-04-04T00:32:59.366Z,19.26
2019-04-04T00:33:59.356Z,19.25
2019-04-04T00:35:00.633Z,19.25
2019-04-04T00:36:03.593Z,19.24
2019-04-04T00:36:59.389Z,19.23
2019-04-04T00:37:59.464Z,19.25
2019-04-04T00:38:59.438Z,19.25
2019-04-04T00:39:59.452Z,19.24
2019-04-04T00:40:59.474Z,19.24
2019-04-04T00:41:59.467Z,19.23
2019-04-04T00:42:59.512Z,19.24
2019-04-04T00:43:59.795Z,19.22
2019-04-04T00:44:59.542Z,19.23
2019-04-04T00:46:01.266Z,19.23
2019-04-04T00:47:02.365Z,19.23
2019-04-04T00:48:03.799Z,19.23
2019-04-04T00:48:59.570Z,19.24
2019-04-04T00:49:59.414Z,19.23
2019-04-04T00:50:59.317Z,19.24
2019-04-04T00:51:59.348Z,19.23
2019-04-04T00:52:59.312Z,19.21
2019-04-04T00:53:59.461Z,19.22
2019-04-04T00:54:59.398Z,19.21
2019-04-04T00:55:59.392Z,19.23
2019-04-04T00:56:59.433Z,19.22
2019-04-04T00:57:59.437Z,19.24
2019-04-04T00:58:59.529Z,19.21
2019-04-04T00:59:59.460Z,19.22
2019-04-04T01:00:59.481Z,19.21
2019-04-04T01:01:59.471Z,19.2
2019-04-04T01:02:59.483Z,19.21
2019-04-04T01:04:01.116Z,19.21
2019-04-04T01:05:02.490Z,19.21
2019-04-04T01:06:03.919Z,19.21
2019-04-04T01:06:59.560Z,19.2
2019-04-04T01:07:59.411Z,19.17
2019-04-04T01:08:59.390Z,19.23
2019-04-04T01:09:59.363Z,19.2
2019-04-04T01:10:59.444Z,19.2
2019-04-04T01:11:59.388Z,19.17
2019-04-04T01:12:59.412Z,19.17
2019-04-04T01:13:59.413Z,19.17
2019-04-04T01:15:00.863Z,19.18
2019-04-04T01:16:03.602Z,19.17
2019-04-04T01:16:59.505Z,19.17
2019-04-04T01:17:59.469Z,19.17
2019-04-04T01:18:59.513Z,19.16
2019-04-04T01:19:59.581Z,19.17
2019-04-04T01:20:59.316Z,19.18
2019-04-04T01:21:59.626Z,19.16
2019-04-04T01:22:59.541Z,19.14
2019-04-04T01:23:59.594Z,19.15
2019-04-04T01:25:01.819Z,19.15
2019-04-04T01:25:59.285Z,19.14
2019-04-04T01:26:59.413Z,19.15
2019-04-04T01:27:59.354Z,19.15
2019-04-04T01:28:59.414Z,19.13
2019-04-04T01:29:59.363Z,19.13
2019-04-04T01:30:59.474Z,19.17
2019-04-04T01:31:59.317Z,19.11
2019-04-04T01:32:59.388Z,19.12
2019-04-04T01:33:59.626Z,19.14
2019-04-04T01:34:59.758Z,19.13
2019-04-04T01:35:59.444Z,19.13
2019-04-04T01:36:59.480Z,19.13
2019-04-04T01:37:59.552Z,19.12
2019-04-04T01:39:00.923Z,19.12
2019-04-04T01:40:03.129Z,19.11
2019-04-04T01:40:59.610Z,19.1
2019-04-04T01:41:59.568Z,19.11
2019-04-04T01:42:59.369Z,19.12
2019-04-04T01:44:05.710Z,19.11
2019-04-04T01:44:59.414Z,19.13
2019-04-04T01:45:59.360Z,19.08
2019-04-04T01:46:59.778Z,19.12
2019-04-04T01:47:59.503Z,19.12
2019-04-04T01:48:59.654Z,19.11
2019-04-04T01:49:59.378Z,19.09
2019-04-04T01:50:59.344Z,19.09
2019-04-04T01:51:59.492Z,19.1
2019-04-04T01:53:00.185Z,19.1
2019-04-04T01:54:01.922Z,19.09
2019-04-04T01:55:04.374Z,19.09
2019-04-04T01:55:59.499Z,19.09
2019-04-04T01:56:59.535Z,19.08
2019-04-04T01:57:59.799Z,19.09
2019-04-04T01:58:59.537Z,19.09
2019-04-04T01:59:59.557Z,19.09
2019-04-04T02:00:59.294Z,19.06
2019-04-04T02:01:59.308Z,19.07
2019-04-04T02:02:59.299Z,19.08
2019-04-04T02:03:59.363Z,19.09
2019-04-04T02:04:59.312Z,19.07
2019-04-04T02:05:59.327Z,19.06
2019-04-04T02:06:59.922Z,19.05
2019-04-04T02:08:01.837Z,19.06
2019-04-04T02:09:03.705Z,19.08
2019-04-04T02:09:59.922Z,19.08
2019-04-04T02:10:59.813Z,19.05
2019-04-04T02:11:59.585Z,19.06
2019-04-04T02:12:59.593Z,19.07
2019-04-04T02:13:59.293Z,19.06
2019-04-04T02:14:59.474Z,19.07
2019-04-04T02:15:59.493Z,19.06
2019-04-04T02:16:59.474Z,19.05
2019-04-04T02:17:59.558Z,19.05
2019-04-04T02:18:59.614Z,19.05
2019-04-04T02:19:59.430Z,19.03
2019-04-04T02:20:59.574Z,19.05
2019-04-04T02:22:00.596Z,19.05
2019-04-04T02:23:02.126Z,19.05
2019-04-04T02:24:02.234Z,19.02
2019-04-04T02:25:04.022Z,19.06
2019-04-04T02:25:59.406Z,19.01
2019-04-04T02:26:59.411Z,19.01
2019-04-04T02:27:59.408Z,19.02
2019-04-04T02:28:59.392Z,19.02
2019-04-04T02:29:59.527Z,19.02
2019-04-04T02:30:59.479Z,19.01
2019-04-04T02:31:59.483Z,19.03
2019-04-04T02:33:01.022Z,19.02
2019-04-04T02:33:59.481Z,19.02
2019-04-04T02:34:59.468Z,19.01
2019-04-04T02:35:59.530Z,19
2019-04-04T02:36:59.664Z,19.01
2019-04-04T02:37:59.578Z,19
2019-04-04T02:39:00.988Z,19.01
2019-04-04T02:39:59.543Z,19
2019-04-04T02:40:59.311Z,19
2019-04-04T02:41:59.384Z,19.01
2019-04-04T02:42:59.441Z,19.01
2019-04-04T02:44:00.944Z,19.01
2019-04-04T02:44:59.380Z,18.99
2019-04-04T02:45:59.397Z,18.98
2019-04-04T02:46:59.406Z,18.99
2019-04-04T02:47:59.542Z,18.98
2019-04-04T02:48:59.405Z,18.99
2019-04-04T02:50:02.561Z,18.99
2019-04-04T02:50:59.553Z,18.97
2019-04-04T02:51:59.636Z,18.98
2019-04-04T02:52:59.483Z,18.98
2019-04-04T02:53:59.879Z,18.97
2019-04-04T02:54:59.660Z,18.96
2019-04-04T02:56:03.878Z,18.98
2019-04-04T02:56:59.360Z,18.98
2019-04-04T02:57:59.438Z,18.98
2019-04-04T02:58:59.369Z,18.95
2019-04-04T02:59:59.353Z,18.98
2019-04-04T03:01:00.871Z,18.96
2019-04-04T03:01:59.396Z,18.96
2019-04-04T03:02:59.370Z,18.94
2019-04-04T03:03:59.412Z,18.96
2019-04-04T03:04:59.488Z,18.96
2019-04-04T03:05:59.543Z,18.96
2019-04-04T03:06:59.477Z,18.95
2019-04-04T03:08:04.911Z,18.96
2019-04-04T03:08:59.467Z,18.95
2019-04-04T03:09:59.595Z,18.95
2019-04-04T03:10:59.503Z,18.97
2019-04-04T03:11:59.570Z,18.94
2019-04-04T03:12:59.762Z,18.94
2019-04-04T03:14:04.990Z,18.95
2019-04-04T03:14:59.429Z,18.95
2019-04-04T03:15:59.997Z,18.96
2019-04-04T03:16:59.315Z,18.93
2019-04-04T03:17:59.314Z,18.94
2019-04-04T03:18:59.332Z,18.93
2019-04-04T03:19:59.338Z,18.93
2019-04-04T03:20:59.346Z,18.92
2019-04-04T03:21:59.382Z,18.92
2019-04-04T03:23:01.831Z,18.92
2019-04-04T03:23:59.407Z,18.91
2019-04-04T03:24:59.415Z,18.93
2019-04-04T03:25:59.366Z,18.93
2019-04-04T03:26:59.597Z,18.93
2019-04-04T03:27:59.646Z,18.93
2019-04-04T03:29:10.954Z,18.91
2019-04-04T03:29:59.496Z,18.93
2019-04-04T03:31:04.556Z,18.89
2019-04-04T03:31:59.454Z,18.91
2019-04-04T03:32:59.350Z,18.93
2019-04-04T03:33:59.373Z,18.89
2019-04-04T03:34:59.379Z,18.91
2019-04-04T03:36:01.540Z,18.92
2019-04-04T03:36:59.645Z,18.92
2019-04-04T03:37:59.399Z,18.89
2019-04-04T03:38:59.416Z,18.89
2019-04-04T03:39:59.447Z,18.89
2019-04-04T03:40:59.588Z,18.91
2019-04-04T03:41:59.381Z,18.92
2019-04-04T03:42:59.521Z,18.91
2019-04-04T03:43:59.442Z,18.89
2019-04-04T03:44:59.682Z,18.88
2019-04-04T03:46:02.013Z,18.89
2019-04-04T03:46:59.600Z,18.91
2019-04-04T03:47:59.498Z,18.88
2019-04-04T03:48:59.280Z,18.88
2019-04-04T03:49:59.393Z,18.88
2019-04-04T03:51:05.503Z,18.91
2019-04-04T03:51:59.271Z,18.88
2019-04-04T03:52:59.375Z,18.91
2019-04-04T03:53:59.472Z,18.93
2019-04-04T03:54:59.525Z,18.93
2019-04-04T03:56:01.867Z,18.97
2019-04-04T03:56:59.308Z,18.96
2019-04-04T03:57:59.786Z,18.98
2019-04-04T03:59:01.107Z,18.98
2019-04-04T03:59:59.378Z,18.99
2019-04-04T04:00:59.613Z,19.02
2019-04-04T04:01:59.394Z,19.03
2019-04-04T04:02:59.561Z,19.06
2019-04-04T04:03:59.479Z,19.07
2019-04-04T04:05:02.542Z,19.09
2019-04-04T04:05:59.724Z,19.11
2019-04-04T04:06:59.549Z,19.11
2019-04-04T04:07:59.258Z,19.13
2019-04-04T04:08:59.332Z,19.14
2019-04-04T04:10:00.700Z,19.14
2019-04-04T04:10:59.320Z,19.17
2019-04-04T04:11:59.455Z,19.18
2019-04-04T04:12:59.310Z,19.2
2019-04-04T04:13:59.436Z,19.21
2019-04-04T04:14:59.359Z,19.25
2019-04-04T04:16:04.146Z,19.25
2019-04-04T04:16:59.397Z,19.27
2019-04-04T04:17:59.421Z,19.27
2019-04-04T04:18:59.448Z,19.3
2019-04-04T04:20:05.282Z,19.31
2019-04-04T04:20:59.617Z,19.32
2019-04-04T04:21:59.457Z,19.35
2019-04-04T04:22:59.460Z,19.33
2019-04-04T04:23:59.612Z,19.37
2019-04-04T04:25:04.087Z,19.4
2019-04-04T04:25:59.288Z,19.4
2019-04-04T04:26:59.286Z,19.4
2019-04-04T04:28:03.628Z,19.42
2019-04-04T04:28:59.341Z,19.43
2019-04-04T04:30:07.921Z,19.44
2019-04-04T04:30:59.279Z,19.44
2019-04-04T04:31:59.343Z,19.45
2019-04-04T04:32:59.369Z,19.46
2019-04-04T04:34:02.182Z,19.48
2019-04-04T04:34:59.498Z,19.5
2019-04-04T04:35:59.358Z,19.48
2019-04-04T04:36:59.424Z,19.52
2019-04-04T04:37:59.477Z,19.51
2019-04-04T04:39:00.486Z,19.51
2019-04-04T04:39:59.434Z,19.52
2019-04-04T04:40:59.442Z,19.54
2019-04-04T04:41:59.986Z,19.53
2019-04-04T04:43:01.354Z,19.54
2019-04-04T04:43:59.512Z,19.53
2019-04-04T04:44:59.239Z,19.56
2019-04-04T04:45:59.280Z,19.56
2019-04-04T04:46:59.313Z,19.55
2019-04-04T04:47:59.325Z,19.56
2019-04-04T04:49:04.604Z,19.58
2019-04-04T04:49:59.685Z,19.56
2019-04-04T04:50:59.481Z,19.56
2019-04-04T04:51:59.450Z,19.59
2019-04-04T04:52:59.398Z,19.58
2019-04-04T04:53:59.401Z,19.57
2019-04-04T04:54:59.473Z,19.57
2019-04-04T04:56:01.021Z,19.59
2019-04-04T04:57:05.380Z,19.59
2019-04-04T04:57:59.456Z,19.59
2019-04-04T04:58:59.435Z,19.57
2019-04-04T04:59:59.424Z,19.6
2019-04-04T05:00:59.737Z,19.58
2019-04-04T05:01:59.600Z,19.59
2019-04-04T05:02:59.504Z,19.59
2019-04-04T05:04:03.056Z,19.58
2019-04-04T05:05:00.226Z,19.6
2019-04-04T05:06:03.616Z,19.61
2019-04-04T05:06:59.280Z,19.59
2019-04-04T05:07:59.350Z,19.59
2019-04-04T05:08:59.326Z,19.6
2019-04-04T05:09:59.392Z,19.6
2019-04-04T05:10:59.318Z,19.59
2019-04-04T05:11:59.360Z,19.59
2019-04-04T05:12:59.457Z,19.59
2019-04-04T05:13:59.561Z,19.61
2019-04-04T05:15:02.441Z,19.6
2019-04-04T05:15:59.369Z,19.59
2019-04-04T05:16:59.421Z,19.56
2019-04-04T05:17:59.373Z,19.58
2019-04-04T05:18:59.594Z,19.58
2019-04-04T05:19:59.418Z,19.58
2019-04-04T05:21:02.800Z,19.56
2019-04-04T05:21:59.592Z,19.57
2019-04-04T05:22:59.278Z,19.59
2019-04-04T05:23:59.374Z,19.59
2019-04-04T05:25:09.332Z,19.58
2019-04-04T05:26:03.528Z,19.58
2019-04-04T05:26:59.321Z,19.59
2019-04-04T05:27:59.351Z,19.59
2019-04-04T05:28:59.361Z,19.57
2019-04-04T05:29:59.346Z,19.56
2019-04-04T05:30:59.362Z,19.56
2019-04-04T05:31:59.372Z,19.57
2019-04-04T05:32:59.440Z,19.57
2019-04-04T05:33:59.995Z,19.56
2019-04-04T05:35:02.295Z,19.56
2019-04-04T05:35:59.439Z,19.56
2019-04-04T05:36:59.483Z,19.56
2019-04-04T05:37:59.597Z,19.57
2019-04-04T05:38:59.532Z,19.57
2019-04-04T05:39:59.506Z,19.55
2019-04-04T05:40:59.335Z,19.56
2019-04-04T05:42:01.416Z,19.55
2019-04-04T05:42:59.258Z,19.54
2019-04-04T05:43:59.242Z,19.54
2019-04-04T05:44:59.242Z,19.53
2019-04-04T05:45:59.311Z,19.53
2019-04-04T05:47:00.272Z,19.53
2019-04-04T05:48:00.158Z,19.52
2019-04-04T05:49:08.672Z,19.52
2019-04-04T05:49:59.285Z,19.51
2019-04-04T05:50:59.326Z,19.53
2019-04-04T05:51:59.368Z,19.52
2019-04-04T05:52:59.398Z,19.52
2019-04-04T05:53:59.626Z,19.51
2019-04-04T05:54:59.493Z,19.52
2019-04-04T05:56:00.552Z,19.51
2019-04-04T05:56:59.431Z,19.53
2019-04-04T05:57:59.474Z,19.52
2019-04-04T05:58:59.207Z,19.51
2019-04-04T05:59:59.288Z,19.5
2019-04-04T06:01:02.846Z,19.52
2019-04-04T06:01:59.322Z,19.52
2019-04-04T06:02:59.291Z,19.52
2019-04-04T06:03:59.324Z,19.5
2019-04-04T06:04:59.343Z,19.47
2019-04-04T06:06:02.215Z,19.47
2019-04-04T06:06:59.348Z,19.5
2019-04-04T06:07:59.427Z,19.47
2019-04-04T06:08:59.577Z,19.48
2019-04-04T06:09:59.368Z,19.5
2019-04-04T06:10:59.396Z,19.46
2019-04-04T06:11:59.468Z,19.46
2019-04-04T06:12:59.409Z,19.46
2019-04-04T06:13:59.922Z,19.47
2019-04-04T06:15:01.343Z,19.45
2019-04-04T06:15:59.479Z,19.45
2019-04-04T06:16:59.169Z,19.44
2019-04-04T06:17:59.185Z,19.45
2019-04-04T06:18:59.227Z,19.46
2019-04-04T06:19:59.201Z,19.45
2019-04-04T06:20:59.226Z,19.45
2019-04-04T06:21:59.272Z,19.43
2019-04-04T06:22:59.398Z,19.44
2019-04-04T06:23:59.255Z,19.43
2019-04-04T06:25:00.174Z,19.44
2019-04-04T06:25:59.358Z,19.44
2019-04-04T06:26:59.304Z,19.43
2019-04-04T06:27:59.457Z,19.42
2019-04-04T06:28:59.594Z,19.42
2019-04-04T06:29:59.440Z,19.41
2019-04-04T06:31:01.071Z,19.43
2019-04-04T06:32:01.154Z,19.4
2019-04-04T06:32:59.478Z,19.41
2019-04-04T06:33:59.476Z,19.41
2019-04-04T06:34:59.235Z,19.4
2019-04-04T06:35:59.244Z,19.42
2019-04-04T06:36:59.262Z,19.4
2019-04-04T06:37:59.242Z,19.42
2019-04-04T06:38:59.332Z,19.42
2019-04-04T06:39:59.792Z,19.43
2019-04-04T06:41:01.727Z,19.41
2019-04-04T06:42:03.165Z,19.42
2019-04-04T06:42:59.315Z,19.4
2019-04-04T06:43:59.318Z,19.44
2019-04-04T06:44:59.396Z,19.42
2019-04-04T06:45:59.414Z,19.43
2019-04-04T06:47:02.398Z,19.43
2019-04-04T06:47:59.372Z,19.42
2019-04-04T06:48:59.579Z,19.44
2019-04-04T06:49:59.466Z,19.45
2019-04-04T06:50:59.434Z,19.45
2019-04-04T06:51:59.426Z,19.45
2019-04-04T06:53:00.187Z,19.45
2019-04-04T06:53:59.992Z,19.48
2019-04-04T06:54:59.227Z,19.46
2019-04-04T06:56:01.229Z,19.45
2019-04-04T06:57:05.076Z,19.46
2019-04-04T06:57:59.326Z,19.5
2019-04-04T06:58:59.243Z,19.47
2019-04-04T06:59:59.320Z,19.5
2019-04-04T07:00:59.303Z,19.47
2019-04-04T07:01:59.295Z,19.48
2019-04-04T07:02:59.304Z,19.48
2019-04-04T07:04:00.461Z,19.48
2019-04-04T07:04:59.307Z,19.51
2019-04-04T07:05:59.402Z,19.5
2019-04-04T07:06:59.378Z,19.51
2019-04-04T07:07:59.359Z,19.51
2019-04-04T07:08:59.382Z,19.51
2019-04-04T07:09:59.417Z,19.51
2019-04-04T07:11:21.887Z,19.52
2019-04-04T07:11:59.232Z,19.52
2019-04-04T07:13:28.369Z,19.53
2019-04-04T07:14:00.035Z,19.52
2019-04-04T07:14:59.265Z,19.54
2019-04-04T07:16:08.499Z,19.54
2019-04-04T07:17:00.199Z,19.54
2019-04-04T07:17:59.313Z,19.54
2019-04-04T07:18:59.369Z,19.54
2019-04-04T07:19:59.313Z,19.53
2019-04-04T07:20:59.422Z,19.53
2019-04-04T07:21:59.419Z,19.56
2019-04-04T07:22:59.360Z,19.56
2019-04-04T07:24:00.241Z,19.55
2019-04-04T07:25:07.016Z,19.54
2019-04-04T07:25:59.427Z,19.55
2019-04-04T07:26:59.433Z,19.56
2019-04-04T07:27:59.548Z,19.54
2019-04-04T07:28:59.200Z,19.55
2019-04-04T07:29:59.188Z,19.56
2019-04-04T07:31:02.692Z,19.54
2019-04-04T07:31:59.245Z,19.55
2019-04-04T07:32:59.216Z,19.54
2019-04-04T07:33:59.410Z,19.56
2019-04-04T07:34:59.403Z,19.56
2019-04-04T07:35:59.585Z,19.55
2019-04-04T07:36:59.321Z,19.57
2019-04-04T07:37:59.391Z,19.56
2019-04-04T07:39:01.220Z,19.56
2019-04-04T07:40:04.739Z,19.56
2019-04-04T07:40:59.332Z,19.56
2019-04-04T07:41:59.359Z,19.56
2019-04-04T07:42:59.373Z,19.54
2019-04-04T07:43:59.357Z,19.56
2019-04-04T07:44:59.251Z,19.55
2019-04-04T07:46:17.369Z,19.54
2019-04-04T07:46:59.295Z,19.53
2019-04-04T07:47:59.299Z,19.55
2019-04-04T07:48:59.338Z,19.55
2019-04-04T07:49:59.289Z,19.56
2019-04-04T07:50:59.483Z,19.56
2019-04-04T07:52:02.447Z,19.57
2019-04-04T07:52:59.281Z,19.53
2019-04-04T07:53:59.338Z,19.55
2019-04-04T07:54:59.430Z,19.55
2019-04-04T07:55:59.682Z,19.53
2019-04-04T07:56:59.465Z,19.53
2019-04-04T07:57:59.354Z,19.54
2019-04-04T07:58:59.415Z,19.53
2019-04-04T07:59:59.386Z,19.54
2019-04-04T08:00:59.402Z,19.52
2019-04-04T08:01:59.485Z,19.51
2019-04-04T08:02:59.446Z,19.53
2019-04-04T08:03:59.206Z,19.55
2019-04-04T08:04:59.143Z,19.52
2019-04-04T08:05:59.178Z,19.52
2019-04-04T08:06:59.382Z,19.53
2019-04-04T08:07:59.199Z,19.52
2019-04-04T08:08:59.252Z,19.52
2019-04-04T08:09:59.204Z,19.52
2019-04-04T08:10:59.361Z,19.52
2019-04-04T08:11:59.412Z,19.52
2019-04-04T08:12:59.285Z,19.51
2019-04-04T08:13:59.427Z,19.52
2019-04-04T08:14:59.285Z,19.51
2019-04-04T08:15:59.316Z,19.48
2019-04-04T08:16:59.336Z,19.47
2019-04-04T08:17:59.463Z,19.5
2019-04-04T08:18:59.374Z,19.5
2019-04-04T08:20:00.335Z,19.47
2019-04-04T08:20:59.497Z,19.48
2019-04-04T08:21:59.535Z,19.5
2019-04-04T08:22:59.177Z,19.48
2019-04-04T08:23:59.182Z,19.5
2019-04-04T08:24:59.255Z,19.47
2019-04-04T08:25:59.278Z,19.47
2019-04-04T08:26:59.283Z,19.45
2019-04-04T08:27:59.275Z,19.48
2019-04-04T08:28:59.237Z,19.46
2019-04-04T08:29:59.372Z,19.46
2019-04-04T08:30:59.386Z,19.46
2019-04-04T08:31:59.287Z,19.44
2019-04-04T08:32:59.328Z,19.47
2019-04-04T08:33:59.442Z,19.45
2019-04-04T08:34:59.325Z,19.45
2019-04-04T08:36:06.931Z,19.46
2019-04-04T08:36:59.501Z,19.45
2019-04-04T08:37:59.399Z,19.45
2019-04-04T08:38:59.137Z,19.44
2019-04-04T08:39:59.325Z,19.43
2019-04-04T08:40:59.373Z,19.43
2019-04-04T08:41:59.278Z,19.46
2019-04-04T08:42:59.202Z,19.45
2019-04-04T08:43:59.361Z,19.43
2019-04-04T08:44:59.238Z,19.43
2019-04-04T08:45:59.252Z,19.44
2019-04-04T08:46:59.263Z,19.43
2019-04-04T08:47:59.255Z,19.44
2019-04-04T08:48:59.156Z,19.42
2019-04-04T08:49:59.292Z,19.4
2019-04-04T08:50:59.340Z,19.44
2019-04-04T08:51:59.308Z,19.42
2019-04-04T08:52:59.365Z,19.43
2019-04-04T08:53:59.353Z,19.42
2019-04-04T08:54:59.371Z,19.42
2019-04-04T08:55:59.191Z,19.41
2019-04-04T08:56:59.178Z,19.41
2019-04-04T08:57:59.200Z,19.4
2019-04-04T08:58:59.265Z,19.41
2019-04-04T08:59:59.276Z,19.41
2019-04-04T09:00:59.244Z,19.43
2019-04-04T09:01:59.574Z,19.41
2019-04-04T09:02:59.373Z,19.39
2019-04-04T09:03:59.278Z,19.41
2019-04-04T09:05:12.967Z,19.4
2019-04-04T09:05:59.311Z,19.39
2019-04-04T09:06:59.378Z,19.4
2019-04-04T09:07:59.373Z,19.4
2019-04-04T09:08:59.306Z,19.4
2019-04-04T09:09:59.389Z,19.38
2019-04-04T09:10:59.458Z,19.38
2019-04-04T09:11:59.326Z,19.37
2019-04-04T09:12:59.407Z,19.38
2019-04-04T09:13:59.112Z,19.39
2019-04-04T09:14:59.127Z,19.39
2019-04-04T09:15:59.206Z,19.39
2019-04-04T09:16:59.162Z,19.36
2019-04-04T09:17:59.179Z,19.39
2019-04-04T09:18:59.198Z,19.39
2019-04-04T09:19:59.183Z,19.38
2019-04-04T09:20:59.246Z,19.36
2019-04-04T09:21:59.402Z,19.38
2019-04-04T09:22:59.321Z,19.36
2019-04-04T09:24:01.083Z,19.37
2019-04-04T09:25:01.564Z,19.39
2019-04-04T09:26:06.662Z,19.37
2019-04-04T09:26:59.317Z,19.39
2019-04-04T09:27:59.312Z,19.38
2019-04-04T09:28:59.311Z,19.38
2019-04-04T09:29:59.334Z,19.39
2019-04-04T09:30:59.133Z,19.36
2019-04-04T09:31:59.162Z,19.37
2019-04-04T09:32:59.263Z,19.36
2019-04-04T09:33:59.204Z,19.38
2019-04-04T09:34:59.218Z,19.38
2019-04-04T09:35:59.174Z,19.37
2019-04-04T09:36:59.236Z,19.37
2019-04-04T09:37:59.231Z,19.38
2019-04-04T09:38:59.322Z,19.36
2019-04-04T09:39:59.327Z,19.36
2019-04-04T09:40:59.340Z,19.4
2019-04-04T09:41:59.361Z,19.35
2019-04-04T09:42:59.330Z,19.37
2019-04-04T09:43:59.291Z,19.39
2019-04-04T09:44:59.588Z,19.37
2019-04-04T09:45:59.450Z,19.38
2019-04-04T09:47:06.069Z,19.37
2019-04-04T09:47:59.344Z,19.38
2019-04-04T09:48:59.384Z,19.37
2019-04-04T09:49:59.121Z,19.38
2019-04-04T09:50:59.277Z,19.37
2019-04-04T09:51:59.106Z,19.39
2019-04-04T09:52:59.174Z,19.37
2019-04-04T09:53:59.144Z,19.36
2019-04-04T09:54:59.264Z,19.36
2019-04-04T09:55:59.182Z,19.38
2019-04-04T09:56:59.207Z,19.38
2019-04-04T09:57:59.230Z,19.38
2019-04-04T09:58:59.208Z,19.37
2019-04-04T09:59:59.294Z,19.39
2019-04-04T10:00:59.309Z,19.38
2019-04-04T10:01:59.444Z,19.38
2019-04-04T10:02:59.258Z,19.38
2019-04-04T10:03:59.294Z,19.37
2019-04-04T10:04:59.307Z,19.36
2019-04-04T10:05:59.297Z,19.37
2019-04-04T10:06:59.383Z,19.38
2019-04-04T10:07:59.543Z,19.4
2019-04-04T10:08:59.149Z,19.39
2019-04-04T10:09:59.165Z,19.38
2019-04-04T10:10:59.179Z,19.38
2019-04-04T10:11:59.178Z,19.38
2019-04-04T10:12:59.226Z,19.38
2019-04-04T10:13:59.310Z,19.4
2019-04-04T10:14:59.243Z,19.37
2019-04-04T10:15:59.304Z,19.38
2019-04-04T10:16:59.234Z,19.38
2019-04-04T10:17:59.277Z,19.37
2019-04-04T10:18:59.290Z,19.38
2019-04-04T10:19:59.264Z,19.39
2019-04-04T10:21:12.985Z,19.4
2019-04-04T10:21:59.342Z,19.38
2019-04-04T10:22:59.306Z,19.39
2019-04-04T10:23:59.752Z,19.38
2019-04-04T10:24:59.420Z,19.4
2019-04-04T10:25:59.550Z,19.39
2019-04-04T10:26:59.577Z,19.39
2019-04-04T10:27:59.103Z,19.39
2019-04-04T10:28:59.129Z,19.39
2019-04-04T10:29:59.335Z,19.38
2019-04-04T10:30:59.312Z,19.4
2019-04-04T10:31:59.156Z,19.4
2019-04-04T10:32:59.271Z,19.38
2019-04-04T10:33:59.110Z,19.4
2019-04-04T10:34:59.201Z,19.39
2019-04-04T10:35:59.233Z,19.4
2019-04-04T10:36:59.263Z,19.39
2019-04-04T10:37:59.244Z,19.39
2019-04-04T10:38:59.268Z,19.37
2019-04-04T10:39:59.305Z,19.39
2019-04-04T10:40:59.266Z,19.37
2019-04-04T10:41:59.272Z,19.4
2019-04-04T10:42:59.326Z,19.39
2019-04-04T10:43:59.412Z,19.4
2019-04-04T10:44:59.162Z,19.4
2019-04-04T10:45:59.155Z,19.41
2019-04-04T10:46:59.157Z,19.41
2019-04-04T10:47:59.154Z,19.4
2019-04-04T10:48:59.249Z,19.39
2019-04-04T10:49:59.210Z,19.38
2019-04-04T10:50:59.201Z,19.39
2019-04-04T10:51:59.298Z,19.39
2019-04-04T10:52:59.227Z,19.4
2019-04-04T10:53:59.249Z,19.4
2019-04-04T10:55:02.307Z,19.41
2019-04-04T10:55:59.399Z,19.4
2019-04-04T10:56:59.350Z,19.42
2019-04-04T10:57:59.290Z,19.4
2019-04-04T10:58:59.305Z,19.39
2019-04-04T10:59:59.435Z,19.39
2019-04-04T11:00:59.465Z,19.41
2019-04-04T11:02:01.210Z,19.4
2019-04-04T11:02:59.064Z,19.4
2019-04-04T11:03:59.273Z,19.4
2019-04-04T11:04:59.104Z,19.39
2019-04-04T11:05:59.138Z,19.42
2019-04-04T11:06:59.171Z,19.4
2019-04-04T11:07:59.324Z,19.4
2019-04-04T11:08:59.155Z,19.41
2019-04-04T11:09:59.311Z,19.41
2019-04-04T11:10:59.357Z,19.38
2019-04-04T11:11:59.192Z,19.39
2019-04-04T11:12:59.304Z,19.38
2019-04-04T11:13:59.244Z,19.4
2019-04-04T11:14:59.230Z,19.4
2019-04-04T11:15:59.261Z,19.4
2019-04-04T11:16:59.256Z,19.4
2019-04-04T11:17:59.340Z,19.38
2019-04-04T11:18:59.328Z,19.4
2019-04-04T11:19:59.298Z,19.4
2019-04-04T11:20:59.116Z,19.39
2019-04-04T11:21:59.195Z,19.4
2019-04-04T11:22:59.155Z,19.39
2019-04-04T11:23:59.503Z,19.4
2019-04-04T11:24:59.159Z,19.39
2019-04-04T11:25:59.175Z,19.39
2019-04-04T11:26:59.235Z,19.4
2019-04-04T11:27:59.204Z,19.4
2019-04-04T11:28:59.259Z,19.41
2019-04-04T11:29:59.219Z,19.4
2019-04-04T11:30:59.240Z,19.4
2019-04-04T11:31:59.284Z,19.4
2019-04-04T11:32:59.415Z,19.4
2019-04-04T11:33:59.343Z,19.4
2019-04-04T11:34:59.348Z,19.38
2019-04-04T11:35:59.315Z,19.39
2019-04-04T11:36:59.322Z,19.41
2019-04-04T11:37:59.324Z,19.4
2019-04-04T11:38:59.079Z,19.4
2019-04-04T11:39:59.127Z,19.38
2019-04-04T11:40:59.264Z,19.4
2019-04-04T11:41:59.227Z,19.38
2019-04-04T11:42:59.141Z,19.39
2019-04-04T11:43:59.220Z,19.4
2019-04-04T11:44:59.127Z,19.4
2019-04-04T11:45:59.161Z,19.4
2019-04-04T11:46:59.200Z,19.39
2019-04-04T11:47:59.182Z,19.41
2019-04-04T11:48:59.307Z,19.4
2019-04-04T11:49:59.192Z,19.38
2019-04-04T11:50:59.239Z,19.41
2019-04-04T11:51:59.413Z,19.4
2019-04-04T11:52:59.222Z,19.4
2019-04-04T11:53:59.287Z,19.41
2019-04-04T11:54:59.363Z,19.4
2019-04-04T11:55:59.331Z,19.4
2019-04-04T11:56:59.488Z,19.41
2019-04-04T11:57:59.125Z,19.39
2019-04-04T11:58:59.117Z,19.39
2019-04-04T11:59:59.135Z,19.39
2019-04-04T12:00:59.155Z,19.4
2019-04-04T12:01:59.233Z,19.4
2019-04-04T12:02:59.147Z,19.4
2019-04-04T12:03:59.189Z,19.42
2019-04-04T12:04:59.233Z,19.4
2019-04-04T12:05:59.229Z,19.42
2019-04-04T12:06:59.262Z,19.39
2019-04-04T12:07:59.259Z,19.41
2019-04-04T12:08:59.327Z,19.41
2019-04-04T12:10:08.599Z,19.41
2019-04-04T12:10:59.360Z,19.4
2019-04-04T12:11:59.402Z,19.4
2019-04-04T12:12:59.511Z,19.41
2019-04-04T12:13:59.466Z,19.42
2019-04-04T12:14:59.058Z,19.41
2019-04-04T12:15:59.147Z,19.4
2019-04-04T12:16:59.073Z,19.39
2019-04-04T12:18:00.108Z,19.39
2019-04-04T12:18:59.117Z,19.4
2019-04-04T12:19:59.187Z,19.39
2019-04-04T12:20:59.158Z,19.4
2019-04-04T12:21:59.177Z,19.4
2019-04-04T12:22:59.184Z,19.4
2019-04-04T12:23:59.193Z,19.4
2019-04-04T12:24:59.243Z,19.39
2019-04-04T12:25:59.205Z,19.4
2019-04-04T12:26:59.221Z,19.4
2019-04-04T12:27:59.266Z,19.39
2019-04-04T12:28:59.377Z,19.39
2019-04-04T12:29:59.228Z,19.4
2019-04-04T12:30:59.363Z,19.4
2019-04-04T12:31:59.416Z,19.38
2019-04-04T12:32:59.314Z,19.4
2019-04-04T12:34:02.525Z,19.39
2019-04-04T12:34:59.115Z,19.4
2019-04-04T12:35:59.111Z,19.39
2019-04-04T12:36:59.152Z,19.39
2019-04-04T12:37:59.169Z,19.4
2019-04-04T12:38:59.142Z,19.42
2019-04-04T12:39:59.332Z,19.4
2019-04-04T12:40:59.161Z,19.39
2019-04-04T12:41:59.187Z,19.41
2019-04-04T12:42:59.238Z,19.39
2019-04-04T12:43:59.225Z,19.4
2019-04-04T12:44:59.222Z,19.4
2019-04-04T12:45:59.274Z,19.38
2019-04-04T12:46:59.259Z,19.38
2019-04-04T12:47:59.274Z,19.4
2019-04-04T12:48:59.308Z,19.39
2019-04-04T12:49:59.383Z,19.4
2019-04-04T12:50:59.291Z,19.39
2019-04-04T12:51:59.162Z,19.39
2019-04-04T12:52:59.075Z,19.38
2019-04-04T12:53:59.189Z,19.39
2019-04-04T12:54:59.294Z,19.41
2019-04-04T12:55:59.143Z,19.4
2019-04-04T12:56:59.138Z,19.4